Time;durP1;ratioP1;P1;durP2;ratioP2;P2;SDS_P1;SDS_P2;PMS_P1;PMS_P2;Temp;Humidity;BMP_temperature;BMP_pressure;BME280_temperature;BME280_humidity;BME280_pressure;Samples;Min_cycle;Max_cycle;Signal;HPM_P1;HPM_P2
2022/01/13 00:00:15;;;;;;;27.83;11.60;;;;;;;;;;5002168;28;20027;-62
2022/01/13 00:02:41;;;;;;;28.60;12.25;;;;;;;;;;4989297;28;20398;-62
2022/01/13 00:05:07;;;;;;;24.73;12.07;;;;;;;;;;4995302;28;20048;-61
2022/01/13 00:07:36;;;;;;;26.30;11.80;;;;;;;;;;4995344;28;20089;-62
2022/01/13 00:10:03;;;;;;;23.60;10.93;;;;;;;;;;4995398;28;20057;-62
2022/01/13 00:12:34;;;;;;;26.02;12.85;;;;;;;;;;4995043;28;20042;-62
2022/01/13 00:25:34;;;;;;;29.45;12.52;;;;;;;;;;4897258;29;20052;-62
2022/01/13 00:28:06;;;;;;;22.63;11.60;;;;;;;;;;4910904;29;20056;-62
2022/01/13 00:30:32;;;;;;;23.20;11.18;;;;;;;;;;4899683;29;20044;-62
2022/01/13 00:33:00;;;;;;;21.25;11.18;;;;;;;;;;4910788;29;20493;-62
2022/01/13 00:35:26;;;;;;;26.75;10.90;;;;;;;;;;4900301;29;20120;-62
2022/01/13 00:37:52;;;;;;;27.30;11.80;;;;;;;;;;4909335;29;20052;-62
2022/01/13 00:40:19;;;;;;;29.10;11.80;;;;;;;;;;4900076;29;20039;-62
2022/01/13 00:42:45;;;;;;;17.55;10.55;;;;;;;;;;4898457;29;20301;-62
2022/01/13 00:45:14;;;;;;;21.83;10.90;;;;;;;;;;4903865;29;20481;-62
2022/01/13 00:47:40;;;;;;;20.60;9.90;;;;;;;;;;4905071;29;20052;-62
2022/01/13 00:50:07;;;;;;;23.77;10.30;;;;;;;;;;4908875;29;20207;-62
2022/01/13 00:52:33;;;;;;;25.02;11.95;;;;;;;;;;4912251;29;20039;-62
2022/01/13 00:55:04;;;;;;;21.98;10.07;;;;;;;;;;4900859;29;20024;-62
2022/01/13 00:57:31;;;;;;;23.48;9.45;;;;;;;;;;4913284;29;20604;-62
2022/01/13 00:59:58;;;;;;;23.00;9.80;;;;;;;;;;4902603;29;20021;-62
2022/01/13 01:02:24;;;;;;;22.70;9.00;;;;;;;;;;4953751;28;20041;-62
2022/01/13 01:04:50;;;;;;;17.77;8.68;;;;;;;;;;4994376;28;20022;-62
2022/01/13 01:07:16;;;;;;;22.13;10.23;;;;;;;;;;5002011;28;20038;-62
2022/01/13 01:09:48;;;;;;;16.27;9.07;;;;;;;;;;5002619;28;20549;-62
2022/01/13 01:12:15;;;;;;;20.40;8.93;;;;;;;;;;4994754;28;20399;-62
2022/01/13 01:14:47;;;;;;;24.17;9.05;;;;;;;;;;5009785;28;20069;-62
2022/01/13 01:17:15;;;;;;;20.23;9.10;;;;;;;;;;5000317;28;20590;-62
2022/01/13 01:19:44;;;;;;;19.92;9.02;;;;;;;;;;4994294;28;20474;-62
2022/01/13 01:27:30;;;;;;;22.13;8.45;;;;;;;;;;5002364;28;20040;-62
2022/01/13 01:30:07;;;;;;;16.13;8.02;;;;;;;;;;5000523;28;20023;-62
2022/01/13 01:32:35;;;;;;;15.10;8.52;;;;;;;;;;5009682;28;20073;-62
2022/01/13 01:35:03;;;;;;;18.70;8.52;;;;;;;;;;4999067;28;20510;-62
2022/01/13 01:37:30;;;;;;;19.67;7.90;;;;;;;;;;5003879;28;20052;-62
2022/01/13 01:39:57;;;;;;;14.95;6.97;;;;;;;;;;4994176;28;20117;-62
2022/01/13 01:42:24;;;;;;;23.20;8.90;;;;;;;;;;4994488;28;20030;-62
2022/01/13 01:44:53;;;;;;;20.50;8.02;;;;;;;;;;4981510;28;20029;-62
2022/01/13 01:47:20;;;;;;;15.10;7.35;;;;;;;;;;5005559;28;20430;-62
2022/01/13 01:49:48;;;;;;;11.82;6.53;;;;;;;;;;5004669;28;20410;-62
2022/01/13 01:52:15;;;;;;;15.05;7.45;;;;;;;;;;4998189;28;20038;-62
2022/01/13 01:54:42;;;;;;;14.95;7.05;;;;;;;;;;5009119;28;20552;-62
2022/01/13 01:57:08;;;;;;;16.05;7.45;;;;;;;;;;4999419;28;20502;-62
2022/01/13 01:59:38;;;;;;;18.40;6.65;;;;;;;;;;5003063;28;20430;-62
2022/01/13 02:02:04;;;;;;;11.48;6.22;;;;;;;;;;4989929;28;20110;-62
2022/01/13 02:04:30;;;;;;;16.55;6.88;;;;;;;;;;4990130;28;20133;-62
2022/01/13 02:07:02;;;;;;;19.63;7.40;;;;;;;;;;4980142;28;20104;-62
2022/01/13 02:09:28;;;;;;;20.77;7.18;;;;;;;;;;4993051;28;20064;-62
2022/01/13 02:11:58;;;;;;;16.48;7.47;;;;;;;;;;4992624;28;20026;-62
2022/01/13 02:17:05;;;;;;;14.30;7.68;;;;;;;;;;4981500;28;20513;-62
2022/01/13 02:19:32;;;;;;;17.23;7.65;;;;;;;;;;4996808;28;20509;-62
2022/01/13 02:21:59;;;;;;;23.00;10.10;;;;;;;;;;5005355;28;20026;-62
2022/01/13 02:24:26;;;;;;;17.70;9.30;;;;;;;;;;4996747;28;20125;-62
2022/01/13 02:26:52;;;;;;;18.08;9.18;;;;;;;;;;5010463;28;20129;-62
2022/01/13 02:29:18;;;;;;;18.73;8.27;;;;;;;;;;5011428;28;20503;-62
2022/01/13 02:31:44;;;;;;;25.58;9.50;;;;;;;;;;5001950;28;20521;-62
2022/01/13 02:34:10;;;;;;;20.45;9.45;;;;;;;;;;4993155;28;20022;-61
2022/01/13 02:36:37;;;;;;;21.33;10.55;;;;;;;;;;5008805;28;20424;-62
2022/01/13 02:39:06;;;;;;;25.30;11.88;;;;;;;;;;4997207;28;20056;-62
2022/01/13 02:41:33;;;;;;;26.23;12.25;;;;;;;;;;5003265;28;20080;-62
2022/01/13 02:44:00;;;;;;;29.65;11.75;;;;;;;;;;5004824;28;20026;-62
2022/01/13 02:49:13;;;;;;;27.42;12.98;;;;;;;;;;4982438;28;20160;-62
2022/01/13 02:51:40;;;;;;;24.13;10.55;;;;;;;;;;5002530;28;20037;-62
2022/01/13 02:54:07;;;;;;;23.60;10.45;;;;;;;;;;5005627;28;20387;-62
2022/01/13 02:56:34;;;;;;;22.08;10.68;;;;;;;;;;4995267;28;20038;-62
2022/01/13 02:59:00;;;;;;;17.33;9.40;;;;;;;;;;4990855;28;20065;-62
2022/01/13 03:01:27;;;;;;;23.17;11.05;;;;;;;;;;4999994;28;20025;-62
2022/01/13 03:03:53;;;;;;;22.98;11.00;;;;;;;;;;5000873;28;20602;-62
2022/01/13 03:06:24;;;;;;;23.95;10.65;;;;;;;;;;4992486;28;20026;-62
2022/01/13 03:08:51;;;;;;;22.23;10.50;;;;;;;;;;5008420;28;20111;-61
2022/01/13 03:11:18;;;;;;;18.75;8.80;;;;;;;;;;4998240;28;20033;-62
2022/01/13 03:13:44;;;;;;;17.70;8.93;;;;;;;;;;5006761;28;20446;-62
2022/01/13 03:16:11;;;;;;;21.52;10.57;;;;;;;;;;4998960;28;20034;-62
2022/01/13 03:18:38;;;;;;;25.80;10.20;;;;;;;;;;5001081;28;20483;-62
2022/01/13 03:21:04;;;;;;;19.67;10.18;;;;;;;;;;5000452;28;20470;-62
2022/01/13 03:23:31;;;;;;;29.20;11.18;;;;;;;;;;5008380;28;20517;-62
2022/01/13 03:25:57;;;;;;;22.23;9.95;;;;;;;;;;5006909;28;20486;-62
2022/01/13 03:28:31;;;;;;;25.38;10.35;;;;;;;;;;5001233;28;20491;-62
2022/01/13 03:31:00;;;;;;;21.17;10.60;;;;;;;;;;5012061;28;20034;-62
2022/01/13 03:33:27;;;;;;;19.95;9.82;;;;;;;;;;4996001;28;20034;-62
2022/01/13 03:35:53;;;;;;;19.13;9.68;;;;;;;;;;4998802;28;20022;-62
2022/01/13 03:38:20;;;;;;;21.77;9.27;;;;;;;;;;4996347;28;20450;-62
2022/01/13 03:40:46;;;;;;;17.27;8.50;;;;;;;;;;5010766;28;20079;-62
2022/01/13 03:43:14;;;;;;;21.33;8.25;;;;;;;;;;5000785;28;20071;-62
2022/01/13 03:45:40;;;;;;;18.38;8.20;;;;;;;;;;5006716;28;20030;-62
2022/01/13 03:48:07;;;;;;;15.55;8.32;;;;;;;;;;5007985;28;20486;-62
2022/01/13 03:50:33;;;;;;;19.48;7.97;;;;;;;;;;4999307;28;20038;-62
2022/01/13 03:53:03;;;;;;;11.15;6.53;;;;;;;;;;4995404;28;20510;-61
2022/01/13 03:55:49;;;;;;;15.40;8.43;;;;;;;;;;4997252;28;20033;-62
2022/01/13 03:58:34;;;;;;;18.27;8.73;;;;;;;;;;5002250;28;20084;-62
2022/01/13 04:01:15;;;;;;;14.63;8.10;;;;;;;;;;4995980;28;20056;-61
2022/01/13 04:03:41;;;;;;;16.00;8.82;;;;;;;;;;4984019;28;20095;-62
2022/01/13 04:06:08;;;;;;;15.38;8.57;;;;;;;;;;4996925;28;20605;-62
2022/01/13 04:08:35;;;;;;;15.60;8.70;;;;;;;;;;4999778;28;20467;-62
2022/01/13 04:11:05;;;;;;;16.13;8.02;;;;;;;;;;5005829;28;20038;-62
2022/01/13 04:16:21;;;;;;;16.92;8.90;;;;;;;;;;5001958;28;20088;-62
2022/01/13 04:18:48;;;;;;;18.38;8.32;;;;;;;;;;5003813;28;20080;-61
2022/01/13 04:21:14;;;;;;;22.05;8.98;;;;;;;;;;4995858;28;20036;-61
2022/01/13 04:23:41;;;;;;;19.45;9.43;;;;;;;;;;5000582;28;20037;-61
2022/01/13 04:26:08;;;;;;;16.25;8.25;;;;;;;;;;5006810;28;20045;-61
2022/01/13 04:28:35;;;;;;;19.45;9.02;;;;;;;;;;4994017;28;20427;-62
2022/01/13 04:31:01;;;;;;;15.90;7.97;;;;;;;;;;4996859;28;20403;-62
2022/01/13 04:33:28;;;;;;;16.98;7.28;;;;;;;;;;4998630;28;20026;-62
2022/01/13 04:35:54;;;;;;;17.00;8.48;;;;;;;;;;4994328;28;20034;-62
2022/01/13 04:38:20;;;;;;;21.33;9.13;;;;;;;;;;4998751;28;20045;-62
2022/01/13 04:40:49;;;;;;;16.23;9.00;;;;;;;;;;5003266;28;20113;-62
2022/01/13 04:43:15;;;;;;;19.50;9.48;;;;;;;;;;4994466;28;20014;-62
2022/01/13 04:45:42;;;;;;;22.00;8.68;;;;;;;;;;4995265;28;20023;-61
2022/01/13 04:48:08;;;;;;;18.80;9.32;;;;;;;;;;5005247;28;20033;-62
2022/01/13 04:50:34;;;;;;;20.75;9.80;;;;;;;;;;5000133;28;20081;-61
2022/01/13 04:53:00;;;;;;;18.85;8.27;;;;;;;;;;4995382;28;20089;-61
2022/01/13 04:55:30;;;;;;;18.15;8.30;;;;;;;;;;5009760;28;20113;-62
2022/01/13 04:57:58;;;;;;;15.75;8.30;;;;;;;;;;5003559;28;20093;-62
2022/01/13 05:00:25;;;;;;;15.75;8.13;;;;;;;;;;5002062;28;20553;-62
2022/01/13 05:02:51;;;;;;;20.80;9.05;;;;;;;;;;5000208;28;20023;-63
2022/01/13 05:05:17;;;;;;;13.82;8.35;;;;;;;;;;5010651;28;20383;-62
2022/01/13 05:07:43;;;;;;;18.45;8.88;;;;;;;;;;5001216;28;20514;-62
2022/01/13 05:10:10;;;;;;;19.95;8.32;;;;;;;;;;5003629;28;20097;-63
2022/01/13 05:12:43;;;;;;;18.77;8.60;;;;;;;;;;5003426;28;20096;-63
2022/01/13 05:15:13;;;;;;;19.17;8.27;;;;;;;;;;4998384;28;20388;-62
2022/01/13 05:18:03;;;;;;;17.90;8.18;;;;;;;;;;5000387;28;20033;-62
2022/01/13 05:20:39;;;;;;;19.30;8.18;;;;;;;;;;5001027;28;20030;-62
2022/01/13 05:23:09;;;;;;;15.98;8.65;;;;;;;;;;4993969;28;20030;-62
2022/01/13 05:25:35;;;;;;;20.85;8.18;;;;;;;;;;4994467;28;20026;-62
2022/01/13 05:28:01;;;;;;;17.13;8.32;;;;;;;;;;4993881;28;20031;-62
2022/01/13 05:30:28;;;;;;;15.63;8.13;;;;;;;;;;4994307;28;20534;-63
2022/01/13 05:32:56;;;;;;;18.13;8.65;;;;;;;;;;4994120;28;20034;-63
2022/01/13 05:35:22;;;;;;;14.82;7.90;;;;;;;;;;4974176;28;20491;-62
2022/01/13 05:37:48;;;;;;;15.38;7.40;;;;;;;;;;4974614;28;20070;-63
2022/01/13 05:40:14;;;;;;;14.18;7.35;;;;;;;;;;4974135;28;20117;-62
2022/01/13 05:42:41;;;;;;;14.30;7.65;;;;;;;;;;4991618;28;20475;-63
2022/01/13 05:45:16;;;;;;;14.98;7.45;;;;;;;;;;4993891;28;20435;-63
2022/01/13 05:47:43;;;;;;;16.65;8.18;;;;;;;;;;4993766;28;20026;-62
2022/01/13 05:50:10;;;;;;;16.73;8.80;;;;;;;;;;4993322;28;20026;-62
2022/01/13 05:52:36;;;;;;;26.77;12.05;;;;;;;;;;4996036;28;20075;-62
2022/01/13 05:55:03;;;;;;;35.08;17.27;;;;;;;;;;4993125;28;20052;-63
2022/01/13 05:57:29;;;;;;;29.60;14.02;;;;;;;;;;4993520;28;20022;-62
2022/01/13 05:59:55;;;;;;;19.40;11.52;;;;;;;;;;4993538;28;20058;-63
2022/01/13 06:02:21;;;;;;;21.35;9.75;;;;;;;;;;4991198;28;20023;-63
2022/01/13 06:04:47;;;;;;;25.00;9.13;;;;;;;;;;4991946;28;20022;-62
2022/01/13 06:07:14;;;;;;;20.40;9.55;;;;;;;;;;4978360;28;20403;-62
2022/01/13 06:09:40;;;;;;;19.63;9.15;;;;;;;;;;4990948;28;20022;-62
2022/01/13 06:12:09;;;;;;;17.10;9.52;;;;;;;;;;4990752;28;20065;-62
2022/01/13 06:14:35;;;;;;;19.17;9.48;;;;;;;;;;4986055;28;20550;-62
2022/01/13 06:17:02;;;;;;;20.48;10.15;;;;;;;;;;4984386;28;20031;-62
2022/01/13 06:19:28;;;;;;;21.35;9.70;;;;;;;;;;4986611;28;20479;-62
2022/01/13 06:21:54;;;;;;;22.15;9.35;;;;;;;;;;4992877;28;20037;-62
2022/01/13 06:24:20;;;;;;;21.33;10.40;;;;;;;;;;4991646;28;20026;-62
2022/01/13 06:26:46;;;;;;;20.58;9.82;;;;;;;;;;4992323;28;20034;-62
2022/01/13 06:29:12;;;;;;;16.75;9.68;;;;;;;;;;4987715;28;20085;-62
2022/01/13 06:31:39;;;;;;;19.70;9.55;;;;;;;;;;4989670;28;20041;-62
2022/01/13 06:34:05;;;;;;;24.55;10.82;;;;;;;;;;4986188;28;20033;-62
2022/01/13 06:36:31;;;;;;;23.52;10.68;;;;;;;;;;4986344;28;20045;-62
2022/01/13 06:38:58;;;;;;;20.95;9.68;;;;;;;;;;4991087;28;20047;-62
2022/01/13 06:41:24;;;;;;;19.00;10.48;;;;;;;;;;4991689;28;20041;-62
2022/01/13 06:43:50;;;;;;;23.17;10.57;;;;;;;;;;4993997;28;20041;-62
2022/01/13 06:46:16;;;;;;;22.35;11.80;;;;;;;;;;4991899;28;20084;-62
2022/01/13 06:48:43;;;;;;;17.25;10.07;;;;;;;;;;4992070;28;20034;-62
2022/01/13 06:51:10;;;;;;;18.27;9.15;;;;;;;;;;4973013;28;20054;-62
2022/01/13 06:53:36;;;;;;;21.90;10.77;;;;;;;;;;4973763;28;20058;-62
2022/01/13 06:56:02;;;;;;;22.80;10.98;;;;;;;;;;4991531;28;20026;-62
2022/01/13 06:58:28;;;;;;;23.65;10.38;;;;;;;;;;4992666;28;20027;-62
2022/01/13 07:00:54;;;;;;;25.58;10.20;;;;;;;;;;4983992;28;20490;-62
2022/01/13 07:03:21;;;;;;;22.63;9.80;;;;;;;;;;4992190;28;20023;-62
2022/01/13 07:05:48;;;;;;;18.42;9.75;;;;;;;;;;4983226;28;20034;-62
2022/01/13 07:08:14;;;;;;;25.75;10.50;;;;;;;;;;4992406;28;20502;-62
2022/01/13 07:10:40;;;;;;;21.42;10.27;;;;;;;;;;4992176;28;20065;-62
2022/01/13 07:13:07;;;;;;;21.45;9.20;;;;;;;;;;4991388;28;20066;-62
2022/01/13 07:15:33;;;;;;;21.10;9.88;;;;;;;;;;4995070;28;20038;-62
2022/01/13 07:18:00;;;;;;;18.85;10.27;;;;;;;;;;5000486;28;20034;-62
2022/01/13 07:20:27;;;;;;;23.02;10.27;;;;;;;;;;4991776;28;20034;-62
2022/01/13 07:22:53;;;;;;;17.35;9.57;;;;;;;;;;4991484;28;20026;-62
2022/01/13 07:25:19;;;;;;;17.48;9.73;;;;;;;;;;4992594;28;20431;-63
2022/01/13 07:27:45;;;;;;;23.50;11.02;;;;;;;;;;4995710;28;20038;-62
2022/01/13 07:30:12;;;;;;;25.90;10.77;;;;;;;;;;4991845;28;20034;-62
2022/01/13 07:32:39;;;;;;;22.13;11.10;;;;;;;;;;4991917;28;20038;-62
2022/01/13 07:35:06;;;;;;;24.60;11.10;;;;;;;;;;4992029;28;20399;-62
2022/01/13 07:37:32;;;;;;;21.77;10.30;;;;;;;;;;4992685;28;20045;-62
2022/01/13 07:39:58;;;;;;;20.00;10.30;;;;;;;;;;4991010;28;20117;-62
2022/01/13 07:42:25;;;;;;;24.90;10.52;;;;;;;;;;4993399;28;20026;-62
2022/01/13 07:44:52;;;;;;;22.15;10.82;;;;;;;;;;4975156;28;20034;-62
2022/01/13 07:47:19;;;;;;;24.67;11.38;;;;;;;;;;5000967;28;20458;-62
2022/01/13 07:49:46;;;;;;;21.25;10.38;;;;;;;;;;5000391;28;20045;-62
2022/01/13 07:52:13;;;;;;;24.92;11.40;;;;;;;;;;4992020;28;20109;-62
2022/01/13 07:54:39;;;;;;;23.80;12.05;;;;;;;;;;4991914;28;20030;-62
2022/01/13 07:57:05;;;;;;;23.92;12.10;;;;;;;;;;4990894;28;20034;-62
2022/01/13 07:59:31;;;;;;;25.85;12.30;;;;;;;;;;4996182;28;20040;-62
2022/01/13 08:02:00;;;;;;;24.75;11.43;;;;;;;;;;4987643;28;20022;-62
2022/01/13 08:04:27;;;;;;;27.40;12.93;;;;;;;;;;4993876;28;20474;-62
2022/01/13 08:06:53;;;;;;;25.95;12.15;;;;;;;;;;5003384;28;20018;-62
2022/01/13 08:09:19;;;;;;;24.27;11.38;;;;;;;;;;4994902;28;20031;-62
2022/01/13 08:11:45;;;;;;;24.33;11.85;;;;;;;;;;5005201;28;20109;-62
2022/01/13 08:14:11;;;;;;;28.05;11.55;;;;;;;;;;5002485;28;20027;-62
2022/01/13 08:16:41;;;;;;;23.60;11.90;;;;;;;;;;5005224;28;20091;-62
2022/01/13 08:21:52;;;;;;;28.85;12.30;;;;;;;;;;4989026;28;20027;-62
2022/01/13 08:24:18;;;;;;;27.50;12.98;;;;;;;;;;4982823;28;20101;-62
2022/01/13 08:26:44;;;;;;;29.15;12.65;;;;;;;;;;4989162;28;20395;-62
2022/01/13 08:29:10;;;;;;;30.38;13.50;;;;;;;;;;4975903;28;20088;-62
2022/01/13 08:31:37;;;;;;;31.33;14.40;;;;;;;;;;4995210;28;20121;-61
2022/01/13 08:34:03;;;;;;;28.88;13.43;;;;;;;;;;5004564;28;20116;-62
2022/01/13 08:36:29;;;;;;;26.60;12.38;;;;;;;;;;5002611;28;20030;-62
2022/01/13 08:38:55;;;;;;;26.02;13.30;;;;;;;;;;4996908;28;20053;-62
2022/01/13 08:41:21;;;;;;;23.50;13.25;;;;;;;;;;4996716;28;20030;-62
2022/01/13 08:43:51;;;;;;;27.90;14.02;;;;;;;;;;5006539;28;20040;-62
2022/01/13 08:46:17;;;;;;;28.80;13.23;;;;;;;;;;5002357;28;20371;-62
2022/01/13 08:48:44;;;;;;;27.70;12.55;;;;;;;;;;5003285;28;20023;-62
2022/01/13 08:51:10;;;;;;;20.58;11.32;;;;;;;;;;4994575;28;20470;-62
2022/01/13 08:53:38;;;;;;;24.85;12.88;;;;;;;;;;5001347;28;20041;-62
2022/01/13 08:56:04;;;;;;;32.53;13.82;;;;;;;;;;4993615;28;20038;-62
2022/01/13 08:58:30;;;;;;;30.02;13.50;;;;;;;;;;4993221;28;20058;-62
2022/01/13 09:00:57;;;;;;;31.67;15.15;;;;;;;;;;4994272;28;20088;-62
2022/01/13 09:03:23;;;;;;;26.27;13.65;;;;;;;;;;5000238;28;20030;-62
2022/01/13 09:05:49;;;;;;;30.63;14.15;;;;;;;;;;4986792;28;20030;-61
2022/01/13 09:08:16;;;;;;;32.53;15.93;;;;;;;;;;4992851;28;20066;-62
2022/01/13 09:10:43;;;;;;;29.85;14.93;;;;;;;;;;4995453;28;20105;-62
2022/01/13 09:13:15;;;;;;;31.35;15.57;;;;;;;;;;5000916;28;20089;-62
2022/01/13 09:15:47;;;;;;;34.78;16.00;;;;;;;;;;5002223;28;20109;-62
2022/01/13 09:18:29;;;;;;;33.13;15.50;;;;;;;;;;4997392;28;20398;-62
2022/01/13 09:20:55;;;;;;;32.65;16.40;;;;;;;;;;4997549;28;20084;-62
2022/01/13 09:23:21;;;;;;;35.28;16.05;;;;;;;;;;4992809;28;20095;-62
2022/01/13 09:25:48;;;;;;;34.83;15.65;;;;;;;;;;4999178;28;20045;-61
2022/01/13 09:28:14;;;;;;;31.05;15.60;;;;;;;;;;4992663;28;20594;-62
2022/01/13 09:30:40;;;;;;;32.58;16.33;;;;;;;;;;4992638;28;20046;-62
2022/01/13 09:33:06;;;;;;;35.67;15.07;;;;;;;;;;4987722;28;20033;-62
2022/01/13 09:35:33;;;;;;;34.65;16.20;;;;;;;;;;4993423;28;20406;-62
2022/01/13 09:37:59;;;;;;;36.75;17.90;;;;;;;;;;4992921;28;20046;-62
2022/01/13 09:40:26;;;;;;;41.05;18.88;;;;;;;;;;4993152;28;20026;-62
2022/01/13 09:42:52;;;;;;;35.97;17.35;;;;;;;;;;4992991;28;20053;-62
2022/01/13 09:45:19;;;;;;;36.80;17.42;;;;;;;;;;4993648;28;20030;-62
2022/01/13 09:47:46;;;;;;;37.38;17.38;;;;;;;;;;5005414;28;20033;-62
2022/01/13 09:50:15;;;;;;;36.05;17.02;;;;;;;;;;4981816;28;20401;-62
2022/01/13 09:52:41;;;;;;;35.00;17.13;;;;;;;;;;4997866;28;20089;-62
2022/01/13 09:55:08;;;;;;;36.63;17.77;;;;;;;;;;5002260;28;20430;-62
2022/01/13 09:57:34;;;;;;;39.60;16.33;;;;;;;;;;4993542;28;20026;-62
2022/01/13 10:00:01;;;;;;;36.10;15.27;;;;;;;;;;4996863;28;20022;-62
2022/01/13 10:02:29;;;;;;;39.28;16.63;;;;;;;;;;4991886;28;20482;-62
2022/01/13 10:04:56;;;;;;;37.13;17.40;;;;;;;;;;4992903;28;20113;-62
2022/01/13 10:07:42;;;;;;;35.50;16.08;;;;;;;;;;4997520;28;20038;-62
2022/01/13 10:10:18;;;;;;;33.45;16.73;;;;;;;;;;4993463;28;20038;-62
2022/01/13 10:12:45;;;;;;;33.88;15.63;;;;;;;;;;4992263;28;20109;-62
2022/01/13 10:17:58;;;;;;;34.85;15.20;;;;;;;;;;4994581;28;20026;-62
2022/01/13 10:20:25;;;;;;;38.00;15.80;;;;;;;;;;4992284;28;20029;-62
2022/01/13 10:22:51;;;;;;;31.48;17.17;;;;;;;;;;5001922;28;20106;-62
2022/01/13 10:25:26;;;;;;;40.35;16.30;;;;;;;;;;4993262;28;20038;-62
2022/01/13 10:27:53;;;;;;;36.60;16.30;;;;;;;;;;4987591;28;20451;-62
2022/01/13 10:30:22;;;;;;;36.83;16.02;;;;;;;;;;5005298;28;20394;-62
2022/01/13 10:32:48;;;;;;;34.10;17.45;;;;;;;;;;4992382;28;20116;-62
2022/01/13 10:35:15;;;;;;;38.83;17.90;;;;;;;;;;4992163;28;20030;-62
2022/01/13 10:37:44;;;;;;;36.28;16.95;;;;;;;;;;4991653;28;20104;-62
2022/01/13 10:40:14;;;;;;;46.47;18.52;;;;;;;;;;4973999;28;20034;-62
2022/01/13 10:45:20;;;;;;;38.42;18.20;;;;;;;;;;4991719;28;20032;-62
2022/01/13 10:47:53;;;;;;;30.02;15.85;;;;;;;;;;4990815;28;20030;-62
2022/01/13 10:50:20;;;;;;;29.17;16.17;;;;;;;;;;4977519;28;20040;-62
2022/01/13 10:52:49;;;;;;;34.85;16.10;;;;;;;;;;4991067;28;20064;-62
2022/01/13 10:55:15;;;;;;;28.95;14.13;;;;;;;;;;4991969;28;20038;-62
2022/01/13 10:57:42;;;;;;;34.78;17.30;;;;;;;;;;4970998;28;20394;-62
2022/01/13 11:00:17;;;;;;;35.80;17.70;;;;;;;;;;4991682;28;20061;-62
2022/01/13 11:02:44;;;;;;;29.55;14.15;;;;;;;;;;4987482;28;20493;-62
2022/01/13 11:05:10;;;;;;;28.50;15.38;;;;;;;;;;4991114;28;20101;-62
2022/01/13 11:07:37;;;;;;;31.88;15.80;;;;;;;;;;4992465;28;20402;-62
2022/01/13 11:10:08;;;;;;;26.77;13.88;;;;;;;;;;4989023;28;20066;-62
2022/01/13 11:12:37;;;;;;;26.27;14.20;;;;;;;;;;4974070;28;20450;-62
2022/01/13 11:15:07;;;;;;;25.55;13.82;;;;;;;;;;4990853;28;20031;-62
2022/01/13 11:17:38;;;;;;;24.00;12.52;;;;;;;;;;4991801;28;20019;-62
2022/01/13 11:20:06;;;;;;;24.50;12.10;;;;;;;;;;4999333;28;20035;-62
2022/01/13 11:22:34;;;;;;;24.27;12.48;;;;;;;;;;5002758;28;20018;-62
2022/01/13 11:25:02;;;;;;;24.52;12.50;;;;;;;;;;4992275;28;20385;-62
2022/01/13 11:27:29;;;;;;;23.55;12.77;;;;;;;;;;4989760;28;20025;-62
2022/01/13 11:29:55;;;;;;;27.83;14.52;;;;;;;;;;4995547;28;20097;-62
2022/01/13 11:32:22;;;;;;;27.05;12.90;;;;;;;;;;4992913;28;20043;-62
2022/01/13 11:34:48;;;;;;;29.55;14.77;;;;;;;;;;4990738;28;20037;-62
2022/01/13 11:37:15;;;;;;;23.38;12.40;;;;;;;;;;4992102;28;20034;-62
2022/01/13 11:39:43;;;;;;;23.95;13.10;;;;;;;;;;4984765;28;20061;-62
2022/01/13 11:42:10;;;;;;;25.15;13.55;;;;;;;;;;4996168;28;20030;-62
2022/01/13 11:44:37;;;;;;;26.30;14.57;;;;;;;;;;4997337;28;20030;-62
2022/01/13 11:47:16;;;;;;;32.10;15.25;;;;;;;;;;4994985;28;20037;-62
2022/01/13 11:49:54;;;;;;;29.45;13.82;;;;;;;;;;4993218;28;20117;-62
2022/01/13 11:52:32;;;;;;;28.27;13.82;;;;;;;;;;4996610;28;20026;-62
2022/01/13 11:54:58;;;;;;;27.33;13.52;;;;;;;;;;4994259;28;20041;-62
2022/01/13 11:57:25;;;;;;;26.58;13.23;;;;;;;;;;4997305;28;20557;-61
2022/01/13 12:00:00;;;;;;;28.65;13.82;;;;;;;;;;4998255;28;20026;-61
2022/01/13 12:02:26;;;;;;;26.83;14.32;;;;;;;;;;4994952;28;20498;-61
2022/01/13 12:05:01;;;;;;;26.70;13.98;;;;;;;;;;5000023;28;20418;-62
2022/01/13 12:07:54;;;;;;;25.88;13.25;;;;;;;;;;4994821;28;20026;-61
2022/01/13 12:10:37;;;;;;;28.77;13.87;;;;;;;;;;4989215;28;20038;-62
2022/01/13 12:13:22;;;;;;;31.42;14.50;;;;;;;;;;4996827;28;20336;-61
2022/01/13 12:15:48;;;;;;;27.92;14.15;;;;;;;;;;4991737;28;20117;-62
2022/01/13 12:18:14;;;;;;;32.03;14.80;;;;;;;;;;4994550;28;20081;-61
2022/01/13 12:20:52;;;;;;;32.22;14.02;;;;;;;;;;4996818;28;20026;-61
2022/01/13 12:23:37;;;;;;;36.40;14.70;;;;;;;;;;4988672;28;20054;-61
2022/01/13 12:26:03;;;;;;;33.33;13.98;;;;;;;;;;4996237;28;20030;-61
2022/01/13 12:28:29;;;;;;;31.80;14.80;;;;;;;;;;5006178;28;20206;-61
2022/01/13 12:30:56;;;;;;;25.48;13.82;;;;;;;;;;4999569;28;20042;-61
2022/01/13 12:33:31;;;;;;;30.00;15.10;;;;;;;;;;5001964;28;20069;-61
2022/01/13 12:35:57;;;;;;;25.27;12.45;;;;;;;;;;4982528;28;20286;-61
2022/01/13 12:38:24;;;;;;;22.90;12.20;;;;;;;;;;4997838;28;20495;-61
2022/01/13 12:40:55;;;;;;;23.92;13.35;;;;;;;;;;4993079;28;20479;-61
2022/01/13 12:46:02;;;;;;;22.75;12.93;;;;;;;;;;4995057;28;20550;-61
2022/01/13 12:48:29;;;;;;;23.27;13.20;;;;;;;;;;4997341;28;20364;-62
2022/01/13 12:50:57;;;;;;;23.27;12.57;;;;;;;;;;4998244;28;20021;-61
2022/01/13 12:53:25;;;;;;;23.73;12.43;;;;;;;;;;4990428;28;20089;-62
2022/01/13 12:55:57;;;;;;;28.90;13.02;;;;;;;;;;4993783;28;20058;-61
2022/01/13 12:58:31;;;;;;;21.70;11.73;;;;;;;;;;4992960;28;20446;-62
2022/01/13 13:00:58;;;;;;;25.50;12.90;;;;;;;;;;4992895;28;20523;-61
2022/01/13 13:03:24;;;;;;;21.52;11.68;;;;;;;;;;4996560;28;20506;-62
2022/01/13 13:05:52;;;;;;;23.88;12.18;;;;;;;;;;5008850;28;20037;-61
2022/01/13 13:08:19;;;;;;;26.80;12.65;;;;;;;;;;5000418;28;20022;-62
2022/01/13 13:10:50;;;;;;;18.67;11.02;;;;;;;;;;4991294;28;20494;-62
2022/01/13 13:13:17;;;;;;;25.50;12.63;;;;;;;;;;4980704;28;20439;-61
2022/01/13 13:15:52;;;;;;;21.20;11.48;;;;;;;;;;4996012;28;20830;-62
2022/01/13 13:18:20;;;;;;;19.67;10.82;;;;;;;;;;4996554;28;20058;-61
2022/01/13 13:20:48;;;;;;;21.98;12.13;;;;;;;;;;4995658;28;20072;-61
2022/01/13 13:23:15;;;;;;;21.20;11.35;;;;;;;;;;4995063;28;20034;-61
2022/01/13 13:25:52;;;;;;;23.23;12.23;;;;;;;;;;4994059;28;20041;-61
2022/01/13 13:28:32;;;;;;;24.42;11.70;;;;;;;;;;4993425;28;20069;-61
2022/01/13 13:31:11;;;;;;;22.90;11.77;;;;;;;;;;4992956;28;20034;-62
2022/01/13 13:33:45;;;;;;;22.05;12.32;;;;;;;;;;4994561;28;20050;-62
2022/01/13 13:36:14;;;;;;;24.55;11.93;;;;;;;;;;4995287;28;20045;-62
2022/01/13 13:38:53;;;;;;;23.20;12.50;;;;;;;;;;4993557;28;20074;-61
2022/01/13 13:41:20;;;;;;;25.40;12.63;;;;;;;;;;4993975;28;20034;-62
2022/01/13 13:43:46;;;;;;;22.60;11.50;;;;;;;;;;4992478;28;20081;-62
2022/01/13 13:46:13;;;;;;;21.85;11.25;;;;;;;;;;4994842;28;20039;-62
2022/01/13 13:48:41;;;;;;;19.27;10.65;;;;;;;;;;4975146;28;20418;-62
2022/01/13 13:51:07;;;;;;;18.20;11.40;;;;;;;;;;4995688;28;20032;-61
2022/01/13 13:53:33;;;;;;;21.42;10.77;;;;;;;;;;4993422;28;20042;-62
2022/01/13 13:56:04;;;;;;;20.52;11.45;;;;;;;;;;4980717;28;20085;-61
2022/01/13 13:58:30;;;;;;;18.42;11.13;;;;;;;;;;4993178;28;20026;-61
2022/01/13 14:00:59;;;;;;;18.48;9.57;;;;;;;;;;4990933;28;20054;-62
2022/01/13 14:03:42;;;;;;;24.98;9.65;;;;;;;;;;4992153;28;20022;-61
2022/01/13 14:06:08;;;;;;;17.90;10.35;;;;;;;;;;4991580;28;20057;-62
2022/01/13 14:08:53;;;;;;;23.30;11.30;;;;;;;;;;5001258;28;20045;-61
2022/01/13 14:11:20;;;;;;;19.63;10.93;;;;;;;;;;4993990;28;20038;-61
2022/01/13 14:13:46;;;;;;;24.17;12.38;;;;;;;;;;4990634;28;20068;-61
2022/01/13 14:16:12;;;;;;;20.95;11.18;;;;;;;;;;4992167;28;20036;-61
2022/01/13 14:18:38;;;;;;;19.67;10.73;;;;;;;;;;4991586;28;20126;-61
2022/01/13 14:21:05;;;;;;;20.05;10.85;;;;;;;;;;5008585;28;20034;-61
2022/01/13 14:23:32;;;;;;;20.98;11.77;;;;;;;;;;5004412;28;20513;-61
2022/01/13 14:26:01;;;;;;;22.60;11.45;;;;;;;;;;4998491;28;20056;-61
2022/01/13 14:28:28;;;;;;;25.83;12.68;;;;;;;;;;5005268;28;20069;-61
2022/01/13 14:31:01;;;;;;;26.90;13.63;;;;;;;;;;4991187;28;20499;-61
2022/01/13 14:33:27;;;;;;;;;;;;;;;;;;4992492;28;20050;-61
2022/01/13 14:36:00;;;;;;;29.52;15.70;;;;;;;;;;5000238;28;19967;-61
2022/01/13 14:38:44;;;;;;;29.00;13.70;;;;;;;;;;5000904;28;20050;-61
2022/01/13 14:41:12;;;;;;;21.80;11.55;;;;;;;;;;5004053;28;20132;-61
2022/01/13 14:43:38;;;;;;;26.35;13.40;;;;;;;;;;4996452;28;20097;-61
2022/01/13 14:46:11;;;;;;;23.17;11.70;;;;;;;;;;4988047;28;20026;-62
2022/01/13 14:48:40;;;;;;;22.13;12.25;;;;;;;;;;4996761;28;20032;-61
2022/01/13 14:51:14;;;;;;;24.70;12.25;;;;;;;;;;4975785;28;20030;-61
2022/01/13 14:53:40;;;;;;;21.25;11.25;;;;;;;;;;4990930;28;20489;-61
2022/01/13 14:56:07;;;;;;;29.77;13.70;;;;;;;;;;4993900;28;20029;-61
2022/01/13 14:58:34;;;;;;;22.83;12.52;;;;;;;;;;4991184;28;20105;-61
2022/01/13 15:01:01;;;;;;;27.50;13.13;;;;;;;;;;4997450;28;20041;-61